sensor_id;sensor_type;location;lat;lon;timestamp;pressure;altitude;pressure_sealevel;temperature;humidity
59329;BME280;45100;46.926;7.452;2023-08-06T00:00:19;94861.66;;;16.77;62.60
59329;BME280;45100;46.926;7.452;2023-08-06T00:02:50;94861.78;;;16.78;61.99
59329;BME280;45100;46.926;7.452;2023-08-06T00:05:23;94857.36;;;16.80;62.07
59329;BME280;45100;46.926;7.452;2023-08-06T00:07:51;94849.84;;;16.83;62.09
59329;BME280;45100;46.926;7.452;2023-08-06T00:10:22;94853.11;;;16.85;60.92
59329;BME280;45100;46.926;7.452;2023-08-06T00:12:53;94844.02;;;16.83;61.29
59329;BME280;45100;46.926;7.452;2023-08-06T00:15:24;94839.45;;;16.83;62.16
59329;BME280;45100;46.926;7.452;2023-08-06T00:17:54;94836.79;;;16.83;61.64
59329;BME280;45100;46.926;7.452;2023-08-06T00:20:25;94835.50;;;16.81;61.39
59329;BME280;45100;46.926;7.452;2023-08-06T00:22:56;94829.73;;;16.80;61.32
59329;BME280;45100;46.926;7.452;2023-08-06T00:25:27;94837.12;;;16.79;61.46
59329;BME280;45100;46.926;7.452;2023-08-06T00:27:58;94841.28;;;16.78;60.99
59329;BME280;45100;46.926;7.452;2023-08-06T00:30:29;94841.58;;;16.80;61.24
59329;BME280;45100;46.926;7.452;2023-08-06T00:32:59;94836.91;;;16.81;60.28
59329;BME280;45100;46.926;7.452;2023-08-06T00:35:30;94828.72;;;16.78;60.77
59329;BME280;45100;46.926;7.452;2023-08-06T00:38:01;94825.09;;;16.77;61.20
59329;BME280;45100;46.926;7.452;2023-08-06T00:40:32;94826.86;;;16.77;61.78
59329;BME280;45100;46.926;7.452;2023-08-06T00:43:02;94818.27;;;16.78;62.23
59329;BME280;45100;46.926;7.452;2023-08-06T00:48:06;94800.16;;;16.78;61.04
59329;BME280;45100;46.926;7.452;2023-08-06T00:50:35;94798.58;;;16.76;61.70
59329;BME280;45100;46.926;7.452;2023-08-06T00:53:06;94803.09;;;16.77;62.54
59329;BME280;45100;46.926;7.452;2023-08-06T00:55:36;94806.30;;;16.77;62.01
59329;BME280;45100;46.926;7.452;2023-08-06T00:58:06;94807.94;;;16.77;62.42
59329;BME280;45100;46.926;7.452;2023-08-06T01:00:36;94810.06;;;16.77;62.25
59329;BME280;45100;46.926;7.452;2023-08-06T01:05:41;94812.23;;;16.79;61.92
59329;BME280;45100;46.926;7.452;2023-08-06T01:13:22;94810.27;;;16.71;62.71
59329;BME280;45100;46.926;7.452;2023-08-06T01:15:46;94806.66;;;16.67;63.63
59329;BME280;45100;46.926;7.452;2023-08-06T01:18:15;94808.56;;;16.67;64.21
59329;BME280;45100;46.926;7.452;2023-08-06T01:20:45;94801.20;;;16.67;64.14
59329;BME280;45100;46.926;7.452;2023-08-06T01:23:15;94800.44;;;16.67;64.31
59329;BME280;45100;46.926;7.452;2023-08-06T01:26:03;94803.54;;;16.67;64.47
59329;BME280;45100;46.926;7.452;2023-08-06T01:28:32;94802.72;;;16.67;64.36
59329;BME280;45100;46.926;7.452;2023-08-06T01:30:48;94802.23;;;16.67;64.32
59329;BME280;45100;46.926;7.452;2023-08-06T01:33:21;94792.12;;;16.68;64.19
59329;BME280;45100;46.926;7.452;2023-08-06T01:35:49;94798.44;;;16.69;64.01
59329;BME280;45100;46.926;7.452;2023-08-06T01:38:18;94791.09;;;16.68;64.24
59329;BME280;45100;46.926;7.452;2023-08-06T01:40:48;94790.29;;;16.66;65.10
59329;BME280;45100;46.926;7.452;2023-08-06T01:43:19;94786.80;;;16.64;65.27
59329;BME280;45100;46.926;7.452;2023-08-06T01:45:50;94794.04;;;16.65;64.76
59329;BME280;45100;46.926;7.452;2023-08-06T01:48:20;94789.91;;;16.65;65.19
59329;BME280;45100;46.926;7.452;2023-08-06T01:50:51;94789.52;;;16.65;65.19
59329;BME280;45100;46.926;7.452;2023-08-06T01:53:22;94783.27;;;16.66;64.97
59329;BME280;45100;46.926;7.452;2023-08-06T01:55:52;94780.08;;;16.62;64.38
59329;BME280;45100;46.926;7.452;2023-08-06T01:58:23;94782.56;;;16.58;64.34
59329;BME280;45100;46.926;7.452;2023-08-06T02:00:54;94781.59;;;16.53;64.58
59329;BME280;45100;46.926;7.452;2023-08-06T02:03:25;94780.24;;;16.52;64.73
59329;BME280;45100;46.926;7.452;2023-08-06T02:05:54;94775.17;;;16.52;65.32
59329;BME280;45100;46.926;7.452;2023-08-06T02:08:27;94770.17;;;16.53;65.23
59329;BME280;45100;46.926;7.452;2023-08-06T02:10:56;94769.64;;;16.52;64.41
59329;BME280;45100;46.926;7.452;2023-08-06T02:13:26;94766.71;;;16.52;64.66
59329;BME280;45100;46.926;7.452;2023-08-06T02:15:57;94765.73;;;16.52;64.88
59329;BME280;45100;46.926;7.452;2023-08-06T02:18:27;94760.95;;;16.51;63.83
59329;BME280;45100;46.926;7.452;2023-08-06T02:20:59;94765.95;;;16.48;63.97
59329;BME280;45100;46.926;7.452;2023-08-06T02:23:29;94770.42;;;16.45;64.16
59329;BME280;45100;46.926;7.452;2023-08-06T02:26:03;94772.71;;;16.41;64.12
59329;BME280;45100;46.926;7.452;2023-08-06T02:28:31;94768.81;;;16.37;64.05
59329;BME280;45100;46.926;7.452;2023-08-06T02:31:01;94773.66;;;16.35;64.43
59329;BME280;45100;46.926;7.452;2023-08-06T02:33:32;94771.23;;;16.29;64.69
59329;BME280;45100;46.926;7.452;2023-08-06T02:36:03;94770.77;;;16.24;64.15
59329;BME280;45100;46.926;7.452;2023-08-06T02:41:07;94766.91;;;16.20;65.02
59329;BME280;45100;46.926;7.452;2023-08-06T02:43:37;94755.23;;;16.21;64.69
59329;BME280;45100;46.926;7.452;2023-08-06T02:46:08;94762.88;;;16.22;64.71
59329;BME280;45100;46.926;7.452;2023-08-06T02:48:39;94763.27;;;16.22;64.74
59329;BME280;45100;46.926;7.452;2023-08-06T02:51:10;94766.31;;;16.23;64.43
59329;BME280;45100;46.926;7.452;2023-08-06T02:53:41;94761.91;;;16.24;64.40
59329;BME280;45100;46.926;7.452;2023-08-06T02:56:12;94764.89;;;16.23;64.12
59329;BME280;45100;46.926;7.452;2023-08-06T02:58:42;94762.72;;;16.23;64.50
59329;BME280;45100;46.926;7.452;2023-08-06T03:01:14;94759.25;;;16.25;64.47
59329;BME280;45100;46.926;7.452;2023-08-06T03:03:43;94771.73;;;16.27;63.56
59329;BME280;45100;46.926;7.452;2023-08-06T03:06:14;94766.85;;;16.27;63.72
59329;BME280;45100;46.926;7.452;2023-08-06T03:08:45;94770.85;;;16.28;63.93
59329;BME280;45100;46.926;7.452;2023-08-06T03:11:16;94775.48;;;16.25;64.11
59329;BME280;45100;46.926;7.452;2023-08-06T03:13:49;94764.64;;;16.21;65.92
59329;BME280;45100;46.926;7.452;2023-08-06T03:16:17;94771.23;;;16.11;67.50
59329;BME280;45100;46.926;7.452;2023-08-06T03:18:48;94766.49;;;15.97;68.19
59329;BME280;45100;46.926;7.452;2023-08-06T03:21:19;94761.61;;;15.86;69.19
59329;BME280;45100;46.926;7.452;2023-08-06T03:23:50;94760.16;;;15.82;69.98
59329;BME280;45100;46.926;7.452;2023-08-06T03:26:21;94751.53;;;15.79;70.81
59329;BME280;45100;46.926;7.452;2023-08-06T03:28:51;94746.91;;;15.78;71.42
59329;BME280;45100;46.926;7.452;2023-08-06T03:31:22;94751.48;;;15.76;71.78
59329;BME280;45100;46.926;7.452;2023-08-06T03:33:52;94753.38;;;15.72;71.62
59329;BME280;45100;46.926;7.452;2023-08-06T03:36:23;94750.05;;;15.65;73.07
59329;BME280;45100;46.926;7.452;2023-08-06T03:38:54;94750.11;;;15.57;75.10
59329;BME280;45100;46.926;7.452;2023-08-06T03:41:25;94758.48;;;15.49;75.65
59329;BME280;45100;46.926;7.452;2023-08-06T03:43:54;94756.58;;;15.43;74.61
59329;BME280;45100;46.926;7.452;2023-08-06T03:46:26;94764.34;;;15.42;74.85
59329;BME280;45100;46.926;7.452;2023-08-06T03:48:57;94768.19;;;15.41;75.58
59329;BME280;45100;46.926;7.452;2023-08-06T03:51:26;94762.15;;;15.37;74.91
59329;BME280;45100;46.926;7.452;2023-08-06T03:53:57;94766.77;;;15.30;74.14
59329;BME280;45100;46.926;7.452;2023-08-06T03:56:28;94760.23;;;15.19;72.21
59329;BME280;45100;46.926;7.452;2023-08-06T03:58:58;94759.04;;;15.05;71.63
59329;BME280;45100;46.926;7.452;2023-08-06T04:01:29;94762.97;;;14.95;73.08
59329;BME280;45100;46.926;7.452;2023-08-06T04:04:00;94765.67;;;14.92;72.68
59329;BME280;45100;46.926;7.452;2023-08-06T04:06:30;94759.23;;;14.95;73.31
59329;BME280;45100;46.926;7.452;2023-08-06T04:09:01;94763.53;;;14.97;72.80
59329;BME280;45100;46.926;7.452;2023-08-06T04:11:31;94767.77;;;14.97;73.46
59329;BME280;45100;46.926;7.452;2023-08-06T04:14:02;94764.72;;;14.99;72.76
59329;BME280;45100;46.926;7.452;2023-08-06T04:16:33;94767.42;;;15.01;72.56
59329;BME280;45100;46.926;7.452;2023-08-06T04:19:04;94772.20;;;14.96;72.65
59329;BME280;45100;46.926;7.452;2023-08-06T04:21:35;94771.97;;;14.92;73.05
59329;BME280;45100;46.926;7.452;2023-08-06T04:24:06;94784.55;;;14.93;73.10
59329;BME280;45100;46.926;7.452;2023-08-06T04:26:37;94778.04;;;14.92;73.22
59329;BME280;45100;46.926;7.452;2023-08-06T04:29:07;94779.79;;;14.91;73.55
59329;BME280;45100;46.926;7.452;2023-08-06T04:31:38;94780.48;;;14.92;73.59
59329;BME280;45100;46.926;7.452;2023-08-06T04:34:10;94781.91;;;14.93;74.52
59329;BME280;45100;46.926;7.452;2023-08-06T04:36:39;94782.98;;;14.96;73.90
59329;BME280;45100;46.926;7.452;2023-08-06T04:39:10;94786.17;;;14.92;74.42
59329;BME280;45100;46.926;7.452;2023-08-06T04:44:14;94800.45;;;14.83;75.57
59329;BME280;45100;46.926;7.452;2023-08-06T04:46:45;94819.08;;;14.84;76.29
59329;BME280;45100;46.926;7.452;2023-08-06T04:49:16;94848.62;;;14.72;77.88
59329;BME280;45100;46.926;7.452;2023-08-06T04:51:46;94833.78;;;14.22;79.53
59329;BME280;45100;46.926;7.452;2023-08-06T04:54:17;94844.05;;;13.66;82.54
59329;BME280;45100;46.926;7.452;2023-08-06T04:56:48;94847.20;;;13.22;84.00
59329;BME280;45100;46.926;7.452;2023-08-06T04:59:19;94860.80;;;12.91;86.33
59329;BME280;45100;46.926;7.452;2023-08-06T05:01:49;94862.53;;;12.68;88.21
59329;BME280;45100;46.926;7.452;2023-08-06T05:04:20;94864.34;;;12.52;89.53
59329;BME280;45100;46.926;7.452;2023-08-06T05:06:51;94878.29;;;12.42;89.39
59329;BME280;45100;46.926;7.452;2023-08-06T05:09:22;94893.33;;;12.31;89.99
59329;BME280;45100;46.926;7.452;2023-08-06T05:11:53;94888.38;;;12.26;91.11
59329;BME280;45100;46.926;7.452;2023-08-06T05:14:24;94887.57;;;12.26;92.09
59329;BME280;45100;46.926;7.452;2023-08-06T05:16:54;94888.20;;;12.31;92.30
59329;BME280;45100;46.926;7.452;2023-08-06T05:19:25;94895.25;;;12.38;90.95
59329;BME280;45100;46.926;7.452;2023-08-06T05:21:56;94894.59;;;12.45;90.35
59329;BME280;45100;46.926;7.452;2023-08-06T05:24:27;94910.16;;;12.53;90.70
59329;BME280;45100;46.926;7.452;2023-08-06T05:26:57;94916.86;;;12.70;90.81
59329;BME280;45100;46.926;7.452;2023-08-06T05:32:01;94917.38;;;12.89;87.72
59329;BME280;45100;46.926;7.452;2023-08-06T05:34:31;94922.54;;;12.91;87.17
59329;BME280;45100;46.926;7.452;2023-08-06T05:37:02;94913.98;;;12.94;87.57
59329;BME280;45100;46.926;7.452;2023-08-06T05:39:33;94917.23;;;13.03;87.77
59329;BME280;45100;46.926;7.452;2023-08-06T05:42:04;94912.30;;;13.17;87.06
59329;BME280;45100;46.926;7.452;2023-08-06T05:44:34;94919.58;;;13.33;86.78
59329;BME280;45100;46.926;7.452;2023-08-06T05:47:05;94918.67;;;13.49;86.20
59329;BME280;45100;46.926;7.452;2023-08-06T05:49:36;94915.44;;;13.67;84.46
59329;BME280;45100;46.926;7.452;2023-08-06T05:52:08;94913.45;;;13.80;82.77
59329;BME280;45100;46.926;7.452;2023-08-06T05:54:37;94916.14;;;13.87;81.72
59329;BME280;45100;46.926;7.452;2023-08-06T05:57:08;94919.66;;;13.91;81.66
59329;BME280;45100;46.926;7.452;2023-08-06T05:59:40;94913.09;;;13.98;80.72
59329;BME280;45100;46.926;7.452;2023-08-06T06:02:09;94916.16;;;14.02;80.58
59329;BME280;45100;46.926;7.452;2023-08-06T06:04:40;94919.39;;;14.06;80.78
59329;BME280;45100;46.926;7.452;2023-08-06T06:07:10;94919.70;;;14.11;80.93
59329;BME280;45100;46.926;7.452;2023-08-06T06:09:41;94929.53;;;14.16;80.19
59329;BME280;45100;46.926;7.452;2023-08-06T06:12:11;94927.47;;;14.23;79.36
59329;BME280;45100;46.926;7.452;2023-08-06T06:14:42;94936.27;;;14.26;77.86
59329;BME280;45100;46.926;7.452;2023-08-06T06:17:13;94937.25;;;14.13;77.07
59329;BME280;45100;46.926;7.452;2023-08-06T06:19:44;94936.77;;;13.99;78.04
59329;BME280;45100;46.926;7.452;2023-08-06T06:22:14;94940.86;;;13.90;79.27
59329;BME280;45100;46.926;7.452;2023-08-06T06:24:45;94949.34;;;13.88;79.90
59329;BME280;45100;46.926;7.452;2023-08-06T06:27:16;94954.76;;;13.89;81.11
59329;BME280;45100;46.926;7.452;2023-08-06T06:29:47;94953.58;;;13.96;80.91
59329;BME280;45100;46.926;7.452;2023-08-06T06:32:18;94963.55;;;13.98;79.17
59329;BME280;45100;46.926;7.452;2023-08-06T06:34:48;94960.62;;;13.98;78.39
59329;BME280;45100;46.926;7.452;2023-08-06T06:37:19;94966.98;;;13.94;77.90
59329;BME280;45100;46.926;7.452;2023-08-06T06:39:50;94966.72;;;13.89;78.12
59329;BME280;45100;46.926;7.452;2023-08-06T06:42:21;94971.01;;;13.84;77.54
59329;BME280;45100;46.926;7.452;2023-08-06T06:44:52;94981.55;;;13.77;78.20
59329;BME280;45100;46.926;7.452;2023-08-06T06:49:56;94987.20;;;13.63;78.37
59329;BME280;45100;46.926;7.452;2023-08-06T06:52:25;94995.67;;;13.60;78.69
59329;BME280;45100;46.926;7.452;2023-08-06T06:54:56;95002.09;;;13.58;78.26
59329;BME280;45100;46.926;7.452;2023-08-06T06:57:27;95004.70;;;13.56;78.57
59329;BME280;45100;46.926;7.452;2023-08-06T06:59:58;95000.06;;;13.51;78.17
59329;BME280;45100;46.926;7.452;2023-08-06T07:02:28;94997.59;;;13.53;78.68
59329;BME280;45100;46.926;7.452;2023-08-06T07:04:59;94997.19;;;13.62;79.27
59329;BME280;45100;46.926;7.452;2023-08-06T07:07:30;94999.67;;;13.70;78.21
59329;BME280;45100;46.926;7.452;2023-08-06T07:10:01;94989.12;;;13.78;77.67
59329;BME280;45100;46.926;7.452;2023-08-06T07:12:31;94994.77;;;13.84;76.88
59329;BME280;45100;46.926;7.452;2023-08-06T07:15:01;95002.06;;;13.88;75.94
59329;BME280;45100;46.926;7.452;2023-08-06T07:17:32;94997.84;;;13.92;75.80
59329;BME280;45100;46.926;7.452;2023-08-06T07:20:04;94999.01;;;13.96;75.31
59329;BME280;45100;46.926;7.452;2023-08-06T07:22:33;94997.86;;;14.06;75.69
59329;BME280;45100;46.926;7.452;2023-08-06T07:25:04;94995.23;;;14.15;75.37
59329;BME280;45100;46.926;7.452;2023-08-06T07:27:35;94997.20;;;14.17;74.17
59329;BME280;45100;46.926;7.452;2023-08-06T07:30:07;95002.67;;;14.19;74.81
59329;BME280;45100;46.926;7.452;2023-08-06T07:32:36;95006.05;;;14.20;74.26
59329;BME280;45100;46.926;7.452;2023-08-06T07:35:13;95008.32;;;14.20;74.80
59329;BME280;45100;46.926;7.452;2023-08-06T07:37:38;95011.07;;;14.20;74.58
59329;BME280;45100;46.926;7.452;2023-08-06T07:40:08;95011.52;;;14.22;75.37
59329;BME280;45100;46.926;7.452;2023-08-06T07:42:38;95011.44;;;14.25;73.93
59329;BME280;45100;46.926;7.452;2023-08-06T07:45:09;95012.88;;;14.27;76.20
59329;BME280;45100;46.926;7.452;2023-08-06T07:47:39;95012.12;;;14.27;75.89
59329;BME280;45100;46.926;7.452;2023-08-06T07:50:10;95018.83;;;14.32;75.99
59329;BME280;45100;46.926;7.452;2023-08-06T07:52:41;95018.83;;;14.39;75.49
59329;BME280;45100;46.926;7.452;2023-08-06T07:55:11;95013.57;;;14.40;75.42
59329;BME280;45100;46.926;7.452;2023-08-06T07:57:42;95012.27;;;14.40;75.04
59329;BME280;45100;46.926;7.452;2023-08-06T08:00:13;95006.27;;;14.41;75.73
59329;BME280;45100;46.926;7.452;2023-08-06T08:02:44;95019.52;;;14.43;75.77
59329;BME280;45100;46.926;7.452;2023-08-06T08:05:14;95016.77;;;14.47;74.22
59329;BME280;45100;46.926;7.452;2023-08-06T08:07:45;95013.55;;;14.52;74.21
59329;BME280;45100;46.926;7.452;2023-08-06T08:10:16;95009.81;;;14.61;72.87
59329;BME280;45100;46.926;7.452;2023-08-06T08:12:48;95017.89;;;14.69;72.77
59329;BME280;45100;46.926;7.452;2023-08-06T08:15:17;95023.20;;;14.82;73.42
59329;BME280;45100;46.926;7.452;2023-08-06T08:17:48;95026.88;;;15.04;74.21
59329;BME280;45100;46.926;7.452;2023-08-06T08:20:18;95028.61;;;15.20;72.00
59329;BME280;45100;46.926;7.452;2023-08-06T08:22:48;95029.57;;;15.29;72.04
59329;BME280;45100;46.926;7.452;2023-08-06T08:25:19;95027.29;;;15.29;70.41
59329;BME280;45100;46.926;7.452;2023-08-06T08:30:23;95031.08;;;15.48;71.91
59329;BME280;45100;46.926;7.452;2023-08-06T08:32:53;95034.82;;;15.65;71.41
59329;BME280;45100;46.926;7.452;2023-08-06T08:35:24;95043.40;;;15.85;68.22
59329;BME280;45100;46.926;7.452;2023-08-06T08:37:55;95048.13;;;15.95;67.35
59329;BME280;45100;46.926;7.452;2023-08-06T08:40:31;95055.62;;;15.88;67.21
59329;BME280;45100;46.926;7.452;2023-08-06T08:42:57;95073.83;;;15.78;67.10
59329;BME280;45100;46.926;7.452;2023-08-06T08:45:29;95060.39;;;15.63;68.52
59329;BME280;45100;46.926;7.452;2023-08-06T08:47:58;95057.89;;;15.49;69.77
59329;BME280;45100;46.926;7.452;2023-08-06T08:50:28;95059.14;;;15.39;71.00
59329;BME280;45100;46.926;7.452;2023-08-06T08:52:59;95054.86;;;15.51;70.90
59329;BME280;45100;46.926;7.452;2023-08-06T08:55:29;95055.65;;;15.67;70.26
59329;BME280;45100;46.926;7.452;2023-08-06T08:58:00;95059.84;;;15.83;69.27
59329;BME280;45100;46.926;7.452;2023-08-06T09:00:31;95071.77;;;15.95;69.96
59329;BME280;45100;46.926;7.452;2023-08-06T09:03:02;95059.30;;;16.10;68.76
59329;BME280;45100;46.926;7.452;2023-08-06T09:08:05;95076.34;;;16.61;67.09
59329;BME280;45100;46.926;7.452;2023-08-06T09:10:38;95083.02;;;16.76;65.44
59329;BME280;45100;46.926;7.452;2023-08-06T09:13:07;95075.26;;;16.75;65.33
59329;BME280;45100;46.926;7.452;2023-08-06T09:15:36;95066.88;;;16.66;64.89
59329;BME280;45100;46.926;7.452;2023-08-06T09:18:10;95081.27;;;16.52;64.35
59329;BME280;45100;46.926;7.452;2023-08-06T09:20:40;95078.16;;;16.37;63.49
59329;BME280;45100;46.926;7.452;2023-08-06T09:23:10;95093.78;;;16.18;63.82
59329;BME280;45100;46.926;7.452;2023-08-06T09:25:40;95102.24;;;15.81;70.67
59329;BME280;45100;46.926;7.452;2023-08-06T09:28:08;95106.20;;;15.42;74.55
59329;BME280;45100;46.926;7.452;2023-08-06T09:30:38;95110.95;;;15.20;76.99
59329;BME280;45100;46.926;7.452;2023-08-06T09:33:09;95106.66;;;15.10;75.63
59329;BME280;45100;46.926;7.452;2023-08-06T09:35:39;95106.74;;;15.07;75.66
59329;BME280;45100;46.926;7.452;2023-08-06T09:38:10;95109.64;;;15.11;77.42
59329;BME280;45100;46.926;7.452;2023-08-06T09:40:39;95107.49;;;15.12;75.46
59329;BME280;45100;46.926;7.452;2023-08-06T09:43:11;95111.34;;;15.12;76.83
59329;BME280;45100;46.926;7.452;2023-08-06T09:45:40;95112.53;;;15.13;78.19
59329;BME280;45100;46.926;7.452;2023-08-06T09:48:13;95122.33;;;15.16;77.66
59329;BME280;45100;46.926;7.452;2023-08-06T09:50:42;95117.05;;;15.16;78.10
59329;BME280;45100;46.926;7.452;2023-08-06T09:53:12;95114.19;;;15.17;78.48
59329;BME280;45100;46.926;7.452;2023-08-06T09:55:44;95128.02;;;15.15;76.70
59329;BME280;45100;46.926;7.452;2023-08-06T09:58:15;95131.16;;;15.06;77.06
59329;BME280;45100;46.926;7.452;2023-08-06T10:00:44;95132.16;;;14.90;77.30
59329;BME280;45100;46.926;7.452;2023-08-06T10:03:15;95144.66;;;14.80;79.04
59329;BME280;45100;46.926;7.452;2023-08-06T10:05:44;95134.80;;;14.80;79.85
59329;BME280;45100;46.926;7.452;2023-08-06T10:08:15;95135.08;;;14.88;78.21
59329;BME280;45100;46.926;7.452;2023-08-06T10:10:45;95138.67;;;14.97;79.00
59329;BME280;45100;46.926;7.452;2023-08-06T10:13:17;95145.41;;;15.07;78.35
59329;BME280;45100;46.926;7.452;2023-08-06T10:15:46;95158.77;;;15.14;76.12
59329;BME280;45100;46.926;7.452;2023-08-06T10:18:22;95160.56;;;15.15;75.23
59329;BME280;45100;46.926;7.452;2023-08-06T10:20:46;95162.37;;;15.16;75.30
59329;BME280;45100;46.926;7.452;2023-08-06T10:23:35;95161.36;;;15.22;76.41
59329;BME280;45100;46.926;7.452;2023-08-06T10:25:53;95162.45;;;15.36;77.30
59329;BME280;45100;46.926;7.452;2023-08-06T10:28:19;95162.53;;;15.49;76.09
59329;BME280;45100;46.926;7.452;2023-08-06T10:30:49;95161.84;;;15.53;75.67
59329;BME280;45100;46.926;7.452;2023-08-06T10:33:19;95160.95;;;15.49;76.09
59329;BME280;45100;46.926;7.452;2023-08-06T10:38:28;95166.09;;;15.68;77.08
59329;BME280;45100;46.926;7.452;2023-08-06T10:41:02;95162.31;;;15.82;74.97
59329;BME280;45100;46.926;7.452;2023-08-06T10:43:33;95160.46;;;15.94;75.72
59329;BME280;45100;46.926;7.452;2023-08-06T10:45:56;95169.65;;;16.10;74.29
59329;BME280;45100;46.926;7.452;2023-08-06T10:48:36;95162.07;;;16.17;71.40
59329;BME280;45100;46.926;7.452;2023-08-06T10:50:56;95159.14;;;16.15;71.62
59329;BME280;45100;46.926;7.452;2023-08-06T10:53:26;95163.61;;;16.20;71.75
59329;BME280;45100;46.926;7.452;2023-08-06T10:55:57;95158.45;;;16.20;71.01
59329;BME280;45100;46.926;7.452;2023-08-06T10:58:33;95165.02;;;16.20;70.48
59329;BME280;45100;46.926;7.452;2023-08-06T11:00:58;95165.22;;;16.17;70.42
59329;BME280;45100;46.926;7.452;2023-08-06T11:03:28;95164.23;;;16.14;71.52
59329;BME280;45100;46.926;7.452;2023-08-06T11:05:59;95166.97;;;16.05;70.51
59329;BME280;45100;46.926;7.452;2023-08-06T11:08:34;95161.92;;;15.91;71.51
59329;BME280;45100;46.926;7.452;2023-08-06T11:11:10;95163.20;;;15.89;74.09
59329;BME280;45100;46.926;7.452;2023-08-06T11:13:33;95160.55;;;16.02;75.27
59329;BME280;45100;46.926;7.452;2023-08-06T11:16:01;95166.32;;;16.20;72.57
59329;BME280;45100;46.926;7.452;2023-08-06T11:18:32;95165.58;;;16.42;73.27
59329;BME280;45100;46.926;7.452;2023-08-06T11:23:35;95169.66;;;16.66;71.41
59329;BME280;45100;46.926;7.452;2023-08-06T11:26:07;95166.22;;;16.70;69.22
59329;BME280;45100;46.926;7.452;2023-08-06T11:28:37;95164.16;;;16.71;67.28
59329;BME280;45100;46.926;7.452;2023-08-06T11:31:19;95171.44;;;16.68;68.30
59329;BME280;45100;46.926;7.452;2023-08-06T11:33:38;95166.85;;;16.58;67.27
59329;BME280;45100;46.926;7.452;2023-08-06T11:36:09;95169.38;;;16.39;68.27
59329;BME280;45100;46.926;7.452;2023-08-06T11:38:40;95170.56;;;16.21;67.86
59329;BME280;45100;46.926;7.452;2023-08-06T11:41:12;95172.23;;;16.12;69.51
59329;BME280;45100;46.926;7.452;2023-08-06T11:43:45;95169.62;;;16.17;71.31
59329;BME280;45100;46.926;7.452;2023-08-06T11:46:12;95166.81;;;16.38;69.99
59329;BME280;45100;46.926;7.452;2023-08-06T11:48:56;95165.11;;;16.59;68.72
59329;BME280;45100;46.926;7.452;2023-08-06T11:51:16;95169.92;;;16.70;68.08
59329;BME280;45100;46.926;7.452;2023-08-06T11:53:48;95160.60;;;16.77;66.78
59329;BME280;45100;46.926;7.452;2023-08-06T11:56:14;95170.04;;;16.79;66.18
59329;BME280;45100;46.926;7.452;2023-08-06T11:58:45;95162.95;;;16.78;67.59
59329;BME280;45100;46.926;7.452;2023-08-06T12:01:15;95166.28;;;16.78;66.79
59329;BME280;45100;46.926;7.452;2023-08-06T12:03:46;95181.65;;;16.76;66.65
59329;BME280;45100;46.926;7.452;2023-08-06T12:06:17;95182.52;;;16.77;68.38
59329;BME280;45100;46.926;7.452;2023-08-06T12:08:48;95183.14;;;16.76;66.48
59329;BME280;45100;46.926;7.452;2023-08-06T12:11:21;95187.53;;;16.70;67.16
59329;BME280;45100;46.926;7.452;2023-08-06T12:13:51;95189.28;;;16.68;69.01
59329;BME280;45100;46.926;7.452;2023-08-06T12:16:21;95177.97;;;16.63;67.73
59329;BME280;45100;46.926;7.452;2023-08-06T12:18:50;95178.00;;;16.57;67.44
59329;BME280;45100;46.926;7.452;2023-08-06T12:21:19;95178.84;;;16.47;65.98
59329;BME280;45100;46.926;7.452;2023-08-06T12:23:50;95185.01;;;16.35;65.00
59329;BME280;45100;46.926;7.452;2023-08-06T12:26:21;95178.86;;;16.30;67.01
59329;BME280;45100;46.926;7.452;2023-08-06T12:31:28;95182.23;;;16.33;67.55
59329;BME280;45100;46.926;7.452;2023-08-06T12:33:58;95195.41;;;16.21;68.89
59329;BME280;45100;46.926;7.452;2023-08-06T12:36:29;95188.50;;;16.10;69.50
59329;BME280;45100;46.926;7.452;2023-08-06T12:39:22;95193.45;;;16.08;70.59
59329;BME280;45100;46.926;7.452;2023-08-06T12:41:52;95189.96;;;16.08;69.55
59329;BME280;45100;46.926;7.452;2023-08-06T12:44:26;95202.19;;;15.98;68.14
59329;BME280;45100;46.926;7.452;2023-08-06T12:46:54;95198.91;;;15.91;70.31
59329;BME280;45100;46.926;7.452;2023-08-06T12:49:25;95209.06;;;15.83;69.88
59329;BME280;45100;46.926;7.452;2023-08-06T12:51:57;95223.52;;;15.63;72.37
59329;BME280;45100;46.926;7.452;2023-08-06T12:54:26;95237.32;;;15.35;75.53
59329;BME280;45100;46.926;7.452;2023-08-06T12:59:29;95239.95;;;14.87;78.41
59329;BME280;45100;46.926;7.452;2023-08-06T13:01:59;95242.34;;;14.78;79.42
59329;BME280;45100;46.926;7.452;2023-08-06T13:04:29;95254.69;;;14.76;80.12
59329;BME280;45100;46.926;7.452;2023-08-06T13:06:59;95248.09;;;14.80;79.63
59329;BME280;45100;46.926;7.452;2023-08-06T13:09:31;95233.70;;;14.91;80.56
59329;BME280;45100;46.926;7.452;2023-08-06T13:12:01;95238.98;;;15.07;79.89
59329;BME280;45100;46.926;7.452;2023-08-06T13:14:30;95242.84;;;15.22;79.03
59329;BME280;45100;46.926;7.452;2023-08-06T13:19:34;95246.42;;;15.39;76.51
59329;BME280;45100;46.926;7.452;2023-08-06T13:22:07;95239.88;;;15.49;76.77
59329;BME280;45100;46.926;7.452;2023-08-06T13:24:35;95244.14;;;15.60;76.55
59329;BME280;45100;46.926;7.452;2023-08-06T13:27:05;95248.41;;;15.71;73.82
59329;BME280;45100;46.926;7.452;2023-08-06T13:29:36;95244.13;;;15.81;75.10
59329;BME280;45100;46.926;7.452;2023-08-06T13:32:07;95237.89;;;15.88;73.74
59329;BME280;45100;46.926;7.452;2023-08-06T13:34:37;95236.62;;;15.96;75.51
59329;BME280;45100;46.926;7.452;2023-08-06T13:37:08;95242.61;;;16.06;73.18
59329;BME280;45100;46.926;7.452;2023-08-06T13:39:39;95236.68;;;16.15;72.96
59329;BME280;45100;46.926;7.452;2023-08-06T13:42:09;95234.55;;;16.19;70.79
59329;BME280;45100;46.926;7.452;2023-08-06T13:47:13;95235.05;;;16.20;68.95
59329;BME280;45100;46.926;7.452;2023-08-06T13:49:43;95232.61;;;16.18;68.43
59329;BME280;45100;46.926;7.452;2023-08-06T13:52:14;95224.11;;;16.16;68.52
59329;BME280;45100;46.926;7.452;2023-08-06T13:56:25;95243.23;;;16.02;67.41
59329;BME280;45100;46.926;7.452;2023-08-06T13:58:55;95242.89;;;15.92;69.27